sensor_id;sensor_type;location;lat;lon;timestamp;P1;durP1;ratioP1;P2;durP2;ratioP2
12892;SDS011;6514;48.606;9.222;2023-06-04T00:02:19;5.10;;;4.40;;
12892;SDS011;6514;48.606;9.222;2023-06-04T00:04:46;6.13;;;4.50;;
12892;SDS011;6514;48.606;9.222;2023-06-04T00:07:13;5.20;;;4.17;;
12892;SDS011;6514;48.606;9.222;2023-06-04T00:09:41;6.43;;;4.43;;
12892;SDS011;6514;48.606;9.222;2023-06-04T00:12:09;5.73;;;4.30;;
12892;SDS011;6514;48.606;9.222;2023-06-04T00:14:35;7.47;;;5.10;;
12892;SDS011;6514;48.606;9.222;2023-06-04T00:17:02;6.10;;;5.13;;
12892;SDS011;6514;48.606;9.222;2023-06-04T00:19:29;6.00;;;4.73;;
12892;SDS011;6514;48.606;9.222;2023-06-04T00:21:58;5.60;;;4.30;;
12892;SDS011;6514;48.606;9.222;2023-06-04T00:24:25;6.03;;;4.53;;
12892;SDS011;6514;48.606;9.222;2023-06-04T00:26:53;5.07;;;4.03;;
12892;SDS011;6514;48.606;9.222;2023-06-04T00:29:20;7.23;;;4.53;;
12892;SDS011;6514;48.606;9.222;2023-06-04T00:31:47;8.43;;;5.00;;
12892;SDS011;6514;48.606;9.222;2023-06-04T00:34:14;7.73;;;4.10;;
12892;SDS011;6514;48.606;9.222;2023-06-04T00:36:42;6.60;;;4.50;;
12892;SDS011;6514;48.606;9.222;2023-06-04T00:39:09;4.93;;;4.30;;
12892;SDS011;6514;48.606;9.222;2023-06-04T00:41:36;5.30;;;4.10;;
12892;SDS011;6514;48.606;9.222;2023-06-04T00:44:04;5.20;;;4.50;;
12892;SDS011;6514;48.606;9.222;2023-06-04T00:46:31;7.00;;;4.70;;
12892;SDS011;6514;48.606;9.222;2023-06-04T00:49:00;6.60;;;3.93;;
12892;SDS011;6514;48.606;9.222;2023-06-04T00:51:28;5.13;;;4.10;;
12892;SDS011;6514;48.606;9.222;2023-06-04T00:53:57;5.97;;;4.50;;
12892;SDS011;6514;48.606;9.222;2023-06-04T00:56:26;6.07;;;4.90;;
12892;SDS011;6514;48.606;9.222;2023-06-04T00:58:53;6.10;;;4.87;;
12892;SDS011;6514;48.606;9.222;2023-06-04T01:01:23;5.63;;;4.53;;
12892;SDS011;6514;48.606;9.222;2023-06-04T01:03:56;5.60;;;4.87;;
12892;SDS011;6514;48.606;9.222;2023-06-04T01:06:27;6.07;;;4.47;;
12892;SDS011;6514;48.606;9.222;2023-06-04T01:09:01;7.07;;;5.00;;
12892;SDS011;6514;48.606;9.222;2023-06-04T01:11:32;5.03;;;4.53;;
12892;SDS011;6514;48.606;9.222;2023-06-04T01:14:00;5.73;;;4.83;;
12892;SDS011;6514;48.606;9.222;2023-06-04T01:16:30;6.70;;;4.97;;
12892;SDS011;6514;48.606;9.222;2023-06-04T01:19:01;5.83;;;4.43;;
12892;SDS011;6514;48.606;9.222;2023-06-04T01:21:34;8.00;;;4.50;;
12892;SDS011;6514;48.606;9.222;2023-06-04T01:24:04;7.73;;;4.67;;
12892;SDS011;6514;48.606;9.222;2023-06-04T01:26:31;6.80;;;4.27;;
12892;SDS011;6514;48.606;9.222;2023-06-04T01:28:58;5.87;;;3.77;;
12892;SDS011;6514;48.606;9.222;2023-06-04T01:31:27;4.77;;;3.80;;
12892;SDS011;6514;48.606;9.222;2023-06-04T01:33:58;4.87;;;3.77;;
12892;SDS011;6514;48.606;9.222;2023-06-04T01:36:25;5.83;;;4.27;;
12892;SDS011;6514;48.606;9.222;2023-06-04T01:38:51;5.60;;;4.00;;
12892;SDS011;6514;48.606;9.222;2023-06-04T01:41:18;7.10;;;4.17;;
12892;SDS011;6514;48.606;9.222;2023-06-04T01:43:45;5.13;;;3.70;;
12892;SDS011;6514;48.606;9.222;2023-06-04T01:46:12;5.50;;;4.30;;
12892;SDS011;6514;48.606;9.222;2023-06-04T01:48:40;4.63;;;3.73;;
12892;SDS011;6514;48.606;9.222;2023-06-04T01:51:07;5.33;;;3.73;;
12892;SDS011;6514;48.606;9.222;2023-06-04T01:53:34;5.77;;;4.00;;
12892;SDS011;6514;48.606;9.222;2023-06-04T01:56:01;6.70;;;4.30;;
12892;SDS011;6514;48.606;9.222;2023-06-04T01:58:27;6.23;;;4.00;;
12892;SDS011;6514;48.606;9.222;2023-06-04T02:00:57;4.30;;;3.90;;
12892;SDS011;6514;48.606;9.222;2023-06-04T02:03:25;4.60;;;3.30;;
12892;SDS011;6514;48.606;9.222;2023-06-04T02:05:53;4.70;;;3.50;;
12892;SDS011;6514;48.606;9.222;2023-06-04T02:08:20;5.63;;;3.93;;
12892;SDS011;6514;48.606;9.222;2023-06-04T02:10:50;6.73;;;3.70;;
12892;SDS011;6514;48.606;9.222;2023-06-04T02:13:18;4.63;;;3.83;;
12892;SDS011;6514;48.606;9.222;2023-06-04T02:15:44;4.53;;;4.13;;
12892;SDS011;6514;48.606;9.222;2023-06-04T02:18:12;6.37;;;4.60;;
12892;SDS011;6514;48.606;9.222;2023-06-04T02:20:41;5.53;;;4.23;;
12892;SDS011;6514;48.606;9.222;2023-06-04T02:23:10;5.77;;;4.80;;
12892;SDS011;6514;48.606;9.222;2023-06-04T02:25:37;5.87;;;4.23;;
12892;SDS011;6514;48.606;9.222;2023-06-04T02:28:04;5.60;;;4.23;;
12892;SDS011;6514;48.606;9.222;2023-06-04T02:30:32;5.10;;;4.03;;
12892;SDS011;6514;48.606;9.222;2023-06-04T02:32:59;5.53;;;3.90;;
12892;SDS011;6514;48.606;9.222;2023-06-04T02:35:26;4.73;;;3.90;;
12892;SDS011;6514;48.606;9.222;2023-06-04T02:37:53;4.70;;;3.30;;
12892;SDS011;6514;48.606;9.222;2023-06-04T02:40:22;5.17;;;3.60;;
12892;SDS011;6514;48.606;9.222;2023-06-04T02:42:50;4.63;;;3.80;;
12892;SDS011;6514;48.606;9.222;2023-06-04T02:45:18;4.57;;;3.83;;
12892;SDS011;6514;48.606;9.222;2023-06-04T02:47:44;4.60;;;3.93;;
12892;SDS011;6514;48.606;9.222;2023-06-04T02:50:12;6.87;;;4.10;;
12892;SDS011;6514;48.606;9.222;2023-06-04T02:52:40;5.43;;;4.40;;
12892;SDS011;6514;48.606;9.222;2023-06-04T02:55:07;5.27;;;4.60;;
12892;SDS011;6514;48.606;9.222;2023-06-04T02:57:38;4.33;;;3.87;;
12892;SDS011;6514;48.606;9.222;2023-06-04T03:00:07;6.47;;;4.27;;
12892;SDS011;6514;48.606;9.222;2023-06-04T03:02:38;4.93;;;4.17;;
12892;SDS011;6514;48.606;9.222;2023-06-04T03:05:07;6.13;;;4.53;;
12892;SDS011;6514;48.606;9.222;2023-06-04T03:07:35;5.93;;;4.33;;
12892;SDS011;6514;48.606;9.222;2023-06-04T03:10:02;4.13;;;3.73;;
12892;SDS011;6514;48.606;9.222;2023-06-04T03:12:30;5.23;;;3.53;;
12892;SDS011;6514;48.606;9.222;2023-06-04T03:14:58;5.23;;;3.80;;
12892;SDS011;6514;48.606;9.222;2023-06-04T03:17:25;5.80;;;3.50;;
12892;SDS011;6514;48.606;9.222;2023-06-04T03:19:52;6.43;;;4.00;;
12892;SDS011;6514;48.606;9.222;2023-06-04T03:22:21;3.57;;;2.83;;
12892;SDS011;6514;48.606;9.222;2023-06-04T03:24:47;5.27;;;3.00;;
12892;SDS011;6514;48.606;9.222;2023-06-04T03:27:14;3.93;;;3.03;;
12892;SDS011;6514;48.606;9.222;2023-06-04T03:29:41;4.30;;;2.90;;
12892;SDS011;6514;48.606;9.222;2023-06-04T03:32:09;5.03;;;2.93;;
12892;SDS011;6514;48.606;9.222;2023-06-04T03:34:37;3.93;;;2.97;;
12892;SDS011;6514;48.606;9.222;2023-06-04T03:37:04;3.67;;;2.87;;
12892;SDS011;6514;48.606;9.222;2023-06-04T03:39:31;3.63;;;2.57;;
12892;SDS011;6514;48.606;9.222;2023-06-04T03:41:58;3.03;;;2.47;;
12892;SDS011;6514;48.606;9.222;2023-06-04T03:44:25;3.93;;;2.83;;
12892;SDS011;6514;48.606;9.222;2023-06-04T03:46:51;3.40;;;2.57;;
12892;SDS011;6514;48.606;9.222;2023-06-04T03:49:20;3.73;;;2.67;;
12892;SDS011;6514;48.606;9.222;2023-06-04T03:51:47;3.83;;;2.67;;
12892;SDS011;6514;48.606;9.222;2023-06-04T03:54:13;5.80;;;3.03;;
12892;SDS011;6514;48.606;9.222;2023-06-04T03:56:43;3.07;;;2.60;;
12892;SDS011;6514;48.606;9.222;2023-06-04T03:59:10;7.23;;;3.37;;
12892;SDS011;6514;48.606;9.222;2023-06-04T04:01:37;5.30;;;2.97;;
12892;SDS011;6514;48.606;9.222;2023-06-04T04:04:04;5.40;;;3.20;;
12892;SDS011;6514;48.606;9.222;2023-06-04T04:06:32;4.50;;;3.10;;
12892;SDS011;6514;48.606;9.222;2023-06-04T04:09:00;3.67;;;2.97;;
12892;SDS011;6514;48.606;9.222;2023-06-04T04:11:28;5.20;;;3.30;;
12892;SDS011;6514;48.606;9.222;2023-06-04T04:13:56;6.30;;;3.80;;
12892;SDS011;6514;48.606;9.222;2023-06-04T04:16:23;4.23;;;3.30;;
12892;SDS011;6514;48.606;9.222;2023-06-04T04:18:52;3.77;;;3.30;;
12892;SDS011;6514;48.606;9.222;2023-06-04T04:21:19;3.60;;;3.23;;
12892;SDS011;6514;48.606;9.222;2023-06-04T04:23:48;3.90;;;3.20;;
12892;SDS011;6514;48.606;9.222;2023-06-04T04:26:15;4.33;;;3.20;;
12892;SDS011;6514;48.606;9.222;2023-06-04T04:28:42;3.50;;;3.20;;
12892;SDS011;6514;48.606;9.222;2023-06-04T04:31:09;4.03;;;3.10;;
12892;SDS011;6514;48.606;9.222;2023-06-04T04:33:36;3.37;;;2.90;;
12892;SDS011;6514;48.606;9.222;2023-06-04T04:36:05;3.83;;;2.90;;
12892;SDS011;6514;48.606;9.222;2023-06-04T04:38:37;3.50;;;2.50;;
12892;SDS011;6514;48.606;9.222;2023-06-04T04:41:06;4.50;;;2.30;;
12892;SDS011;6514;48.606;9.222;2023-06-04T04:43:34;3.60;;;2.10;;
12892;SDS011;6514;48.606;9.222;2023-06-04T04:46:02;2.10;;;1.80;;
12892;SDS011;6514;48.606;9.222;2023-06-04T04:48:29;2.23;;;2.03;;
12892;SDS011;6514;48.606;9.222;2023-06-04T04:50:56;3.10;;;2.20;;
12892;SDS011;6514;48.606;9.222;2023-06-04T04:53:23;2.80;;;2.20;;
12892;SDS011;6514;48.606;9.222;2023-06-04T04:55:50;3.03;;;1.97;;
12892;SDS011;6514;48.606;9.222;2023-06-04T04:58:18;3.07;;;2.10;;
12892;SDS011;6514;48.606;9.222;2023-06-04T05:00:45;2.13;;;1.93;;
12892;SDS011;6514;48.606;9.222;2023-06-04T05:03:12;3.17;;;2.40;;
12892;SDS011;6514;48.606;9.222;2023-06-04T05:05:39;2.43;;;2.03;;
12892;SDS011;6514;48.606;9.222;2023-06-04T05:08:06;3.40;;;2.37;;
12892;SDS011;6514;48.606;9.222;2023-06-04T05:10:33;2.67;;;1.90;;
12892;SDS011;6514;48.606;9.222;2023-06-04T05:13:01;2.53;;;2.23;;
12892;SDS011;6514;48.606;9.222;2023-06-04T05:15:31;3.77;;;2.50;;
12892;SDS011;6514;48.606;9.222;2023-06-04T05:17:58;3.23;;;1.97;;
12892;SDS011;6514;48.606;9.222;2023-06-04T05:20:26;3.03;;;2.03;;
12892;SDS011;6514;48.606;9.222;2023-06-04T05:22:53;4.97;;;2.40;;
12892;SDS011;6514;48.606;9.222;2023-06-04T05:25:21;3.33;;;2.00;;
12892;SDS011;6514;48.606;9.222;2023-06-04T05:27:48;3.23;;;1.90;;
12892;SDS011;6514;48.606;9.222;2023-06-04T05:30:15;2.20;;;1.70;;
12892;SDS011;6514;48.606;9.222;2023-06-04T05:32:44;2.13;;;1.67;;
12892;SDS011;6514;48.606;9.222;2023-06-04T05:35:10;2.33;;;1.90;;
12892;SDS011;6514;48.606;9.222;2023-06-04T05:37:38;2.33;;;1.80;;
12892;SDS011;6514;48.606;9.222;2023-06-04T05:40:06;2.70;;;1.63;;
12892;SDS011;6514;48.606;9.222;2023-06-04T05:42:34;2.20;;;1.67;;
12892;SDS011;6514;48.606;9.222;2023-06-04T05:45:01;2.20;;;1.70;;
12892;SDS011;6514;48.606;9.222;2023-06-04T05:47:28;4.43;;;1.80;;
12892;SDS011;6514;48.606;9.222;2023-06-04T05:49:57;2.13;;;1.80;;
12892;SDS011;6514;48.606;9.222;2023-06-04T05:52:24;4.00;;;2.00;;
12892;SDS011;6514;48.606;9.222;2023-06-04T05:54:51;1.80;;;1.67;;
12892;SDS011;6514;48.606;9.222;2023-06-04T05:57:18;4.37;;;1.70;;
12892;SDS011;6514;48.606;9.222;2023-06-04T05:59:46;3.57;;;1.83;;
12892;SDS011;6514;48.606;9.222;2023-06-04T06:02:12;2.33;;;1.67;;
12892;SDS011;6514;48.606;9.222;2023-06-04T06:04:39;1.80;;;1.50;;
12892;SDS011;6514;48.606;9.222;2023-06-04T06:07:08;2.17;;;1.67;;
12892;SDS011;6514;48.606;9.222;2023-06-04T06:09:35;2.00;;;1.53;;
12892;SDS011;6514;48.606;9.222;2023-06-04T06:12:02;3.47;;;1.70;;
12892;SDS011;6514;48.606;9.222;2023-06-04T06:14:30;3.77;;;1.60;;
12892;SDS011;6514;48.606;9.222;2023-06-04T06:16:57;4.30;;;2.00;;
12892;SDS011;6514;48.606;9.222;2023-06-04T06:19:25;2.57;;;1.70;;
12892;SDS011;6514;48.606;9.222;2023-06-04T06:21:52;2.60;;;1.80;;
12892;SDS011;6514;48.606;9.222;2023-06-04T06:24:20;3.03;;;1.63;;
12892;SDS011;6514;48.606;9.222;2023-06-04T06:26:47;2.20;;;1.60;;
12892;SDS011;6514;48.606;9.222;2023-06-04T06:29:14;4.23;;;1.73;;
12892;SDS011;6514;48.606;9.222;2023-06-04T06:31:41;1.87;;;1.67;;
12892;SDS011;6514;48.606;9.222;2023-06-04T06:34:08;3.53;;;1.67;;
12892;SDS011;6514;48.606;9.222;2023-06-04T06:36:34;3.83;;;1.83;;
12892;SDS011;6514;48.606;9.222;2023-06-04T06:39:01;2.87;;;1.80;;
12892;SDS011;6514;48.606;9.222;2023-06-04T06:41:30;1.43;;;1.33;;
12892;SDS011;6514;48.606;9.222;2023-06-04T06:43:57;2.03;;;1.47;;
12892;SDS011;6514;48.606;9.222;2023-06-04T06:46:24;2.30;;;1.70;;
12892;SDS011;6514;48.606;9.222;2023-06-04T06:48:50;3.23;;;1.70;;
12892;SDS011;6514;48.606;9.222;2023-06-04T06:51:17;2.60;;;1.83;;
12892;SDS011;6514;48.606;9.222;2023-06-04T06:53:44;2.23;;;1.70;;
12892;SDS011;6514;48.606;9.222;2023-06-04T06:56:11;2.70;;;1.90;;
12892;SDS011;6514;48.606;9.222;2023-06-04T06:58:41;3.73;;;1.50;;
12892;SDS011;6514;48.606;9.222;2023-06-04T07:01:08;2.17;;;1.73;;
12892;SDS011;6514;48.606;9.222;2023-06-04T07:03:35;2.10;;;1.53;;
12892;SDS011;6514;48.606;9.222;2023-06-04T07:06:03;2.00;;;1.57;;
12892;SDS011;6514;48.606;9.222;2023-06-04T07:08:30;3.33;;;1.63;;
12892;SDS011;6514;48.606;9.222;2023-06-04T07:10:57;3.20;;;1.80;;
12892;SDS011;6514;48.606;9.222;2023-06-04T07:13:24;2.17;;;1.90;;
12892;SDS011;6514;48.606;9.222;2023-06-04T07:15:52;1.50;;;1.40;;
12892;SDS011;6514;48.606;9.222;2023-06-04T07:18:19;2.97;;;1.90;;
12892;SDS011;6514;48.606;9.222;2023-06-04T07:20:46;1.67;;;1.40;;
12892;SDS011;6514;48.606;9.222;2023-06-04T07:23:13;2.30;;;1.83;;
12892;SDS011;6514;48.606;9.222;2023-06-04T07:25:40;2.47;;;1.53;;
12892;SDS011;6514;48.606;9.222;2023-06-04T07:28:07;2.30;;;1.90;;
12892;SDS011;6514;48.606;9.222;2023-06-04T07:30:33;2.27;;;1.67;;
12892;SDS011;6514;48.606;9.222;2023-06-04T07:33:03;2.63;;;1.70;;
12892;SDS011;6514;48.606;9.222;2023-06-04T07:35:31;2.30;;;1.70;;
12892;SDS011;6514;48.606;9.222;2023-06-04T07:37:58;2.00;;;1.80;;
12892;SDS011;6514;48.606;9.222;2023-06-04T07:40:25;2.97;;;1.60;;
12892;SDS011;6514;48.606;9.222;2023-06-04T07:42:51;4.03;;;1.50;;
12892;SDS011;6514;48.606;9.222;2023-06-04T07:45:18;2.93;;;1.80;;
12892;SDS011;6514;48.606;9.222;2023-06-04T07:47:45;2.57;;;1.97;;
12892;SDS011;6514;48.606;9.222;2023-06-04T07:50:13;2.20;;;1.97;;
12892;SDS011;6514;48.606;9.222;2023-06-04T07:52:40;2.00;;;1.80;;
12892;SDS011;6514;48.606;9.222;2023-06-04T07:55:08;2.30;;;2.00;;
12892;SDS011;6514;48.606;9.222;2023-06-04T07:57:35;2.67;;;1.57;;
12892;SDS011;6514;48.606;9.222;2023-06-04T08:00:02;2.73;;;1.60;;
12892;SDS011;6514;48.606;9.222;2023-06-04T08:02:30;1.63;;;1.50;;
12892;SDS011;6514;48.606;9.222;2023-06-04T08:04:57;3.43;;;1.80;;
12892;SDS011;6514;48.606;9.222;2023-06-04T08:07:25;1.83;;;1.40;;
12892;SDS011;6514;48.606;9.222;2023-06-04T08:09:52;4.37;;;1.70;;
12892;SDS011;6514;48.606;9.222;2023-06-04T08:12:20;2.03;;;1.73;;
12892;SDS011;6514;48.606;9.222;2023-06-04T08:14:47;2.13;;;1.50;;
12892;SDS011;6514;48.606;9.222;2023-06-04T08:17:15;2.53;;;1.80;;
12892;SDS011;6514;48.606;9.222;2023-06-04T08:19:42;3.57;;;1.90;;
12892;SDS011;6514;48.606;9.222;2023-06-04T08:22:09;3.87;;;1.67;;
12892;SDS011;6514;48.606;9.222;2023-06-04T08:24:37;2.00;;;1.67;;
12892;SDS011;6514;48.606;9.222;2023-06-04T08:27:05;1.67;;;1.57;;
12892;SDS011;6514;48.606;9.222;2023-06-04T08:29:33;3.23;;;1.67;;
12892;SDS011;6514;48.606;9.222;2023-06-04T08:32:00;2.67;;;1.90;;
12892;SDS011;6514;48.606;9.222;2023-06-04T08:34:27;2.00;;;1.50;;
12892;SDS011;6514;48.606;9.222;2023-06-04T08:36:54;2.07;;;1.60;;
12892;SDS011;6514;48.606;9.222;2023-06-04T08:39:22;2.97;;;1.63;;
12892;SDS011;6514;48.606;9.222;2023-06-04T08:41:51;1.80;;;1.40;;
12892;SDS011;6514;48.606;9.222;2023-06-04T08:44:19;2.57;;;1.70;;
12892;SDS011;6514;48.606;9.222;2023-06-04T08:46:47;2.10;;;1.57;;
12892;SDS011;6514;48.606;9.222;2023-06-04T08:49:19;2.77;;;1.77;;
12892;SDS011;6514;48.606;9.222;2023-06-04T08:51:48;2.53;;;1.90;;
12892;SDS011;6514;48.606;9.222;2023-06-04T08:54:15;3.13;;;2.03;;
12892;SDS011;6514;48.606;9.222;2023-06-04T08:56:42;1.70;;;1.60;;
12892;SDS011;6514;48.606;9.222;2023-06-04T08:59:11;2.63;;;1.60;;
12892;SDS011;6514;48.606;9.222;2023-06-04T09:01:39;2.17;;;1.67;;
12892;SDS011;6514;48.606;9.222;2023-06-04T09:04:10;1.93;;;1.73;;
12892;SDS011;6514;48.606;9.222;2023-06-04T09:06:37;3.93;;;1.80;;
12892;SDS011;6514;48.606;9.222;2023-06-04T09:09:07;3.37;;;1.87;;
12892;SDS011;6514;48.606;9.222;2023-06-04T09:11:36;2.13;;;1.93;;
12892;SDS011;6514;48.606;9.222;2023-06-04T09:14:07;2.53;;;1.50;;
12892;SDS011;6514;48.606;9.222;2023-06-04T09:16:43;2.13;;;1.47;;
12892;SDS011;6514;48.606;9.222;2023-06-04T09:19:10;2.87;;;1.60;;
12892;SDS011;6514;48.606;9.222;2023-06-04T09:21:45;2.43;;;1.90;;
12892;SDS011;6514;48.606;9.222;2023-06-04T09:24:16;2.00;;;1.70;;
12892;SDS011;6514;48.606;9.222;2023-06-04T09:26:43;3.80;;;2.10;;
12892;SDS011;6514;48.606;9.222;2023-06-04T09:29:11;2.33;;;1.77;;
12892;SDS011;6514;48.606;9.222;2023-06-04T09:31:38;2.23;;;2.00;;
12892;SDS011;6514;48.606;9.222;2023-06-04T09:34:06;3.90;;;1.90;;
12892;SDS011;6514;48.606;9.222;2023-06-04T09:36:34;3.10;;;1.87;;
12892;SDS011;6514;48.606;9.222;2023-06-04T09:39:02;2.27;;;1.87;;
12892;SDS011;6514;48.606;9.222;2023-06-04T09:41:30;2.70;;;1.57;;
12892;SDS011;6514;48.606;9.222;2023-06-04T09:44:00;2.67;;;1.90;;
12892;SDS011;6514;48.606;9.222;2023-06-04T09:46:28;2.67;;;2.03;;
12892;SDS011;6514;48.606;9.222;2023-06-04T09:48:59;2.13;;;1.83;;
12892;SDS011;6514;48.606;9.222;2023-06-04T09:51:28;3.87;;;2.20;;
12892;SDS011;6514;48.606;9.222;2023-06-04T09:53:57;3.03;;;1.90;;
12892;SDS011;6514;48.606;9.222;2023-06-04T09:56:24;3.17;;;2.20;;
12892;SDS011;6514;48.606;9.222;2023-06-04T09:58:53;3.57;;;1.73;;
12892;SDS011;6514;48.606;9.222;2023-06-04T10:01:21;2.70;;;1.90;;
12892;SDS011;6514;48.606;9.222;2023-06-04T10:03:52;2.77;;;1.97;;
12892;SDS011;6514;48.606;9.222;2023-06-04T10:06:20;2.23;;;1.97;;
12892;SDS011;6514;48.606;9.222;2023-06-04T10:08:49;3.00;;;1.93;;
12892;SDS011;6514;48.606;9.222;2023-06-04T10:11:17;2.10;;;1.90;;
12892;SDS011;6514;48.606;9.222;2023-06-04T10:13:48;2.83;;;2.03;;
12892;SDS011;6514;48.606;9.222;2023-06-04T10:16:20;2.53;;;2.20;;
12892;SDS011;6514;48.606;9.222;2023-06-04T10:18:49;3.77;;;2.03;;
12892;SDS011;6514;48.606;9.222;2023-06-04T10:21:19;2.70;;;2.10;;
12892;SDS011;6514;48.606;9.222;2023-06-04T10:23:48;2.10;;;1.87;;
12892;SDS011;6514;48.606;9.222;2023-06-04T10:26:16;2.53;;;1.90;;
12892;SDS011;6514;48.606;9.222;2023-06-04T10:28:43;3.57;;;2.17;;
12892;SDS011;6514;48.606;9.222;2023-06-04T10:31:10;2.73;;;2.10;;
12892;SDS011;6514;48.606;9.222;2023-06-04T10:33:37;4.50;;;2.10;;
12892;SDS011;6514;48.606;9.222;2023-06-04T10:36:15;2.43;;;2.20;;
12892;SDS011;6514;48.606;9.222;2023-06-04T10:38:44;3.53;;;2.23;;
12892;SDS011;6514;48.606;9.222;2023-06-04T10:41:14;3.33;;;2.50;;
12892;SDS011;6514;48.606;9.222;2023-06-04T10:43:42;2.60;;;2.20;;
12892;SDS011;6514;48.606;9.222;2023-06-04T10:46:11;5.00;;;2.50;;
12892;SDS011;6514;48.606;9.222;2023-06-04T10:48:44;2.73;;;2.40;;
12892;SDS011;6514;48.606;9.222;2023-06-04T10:51:12;5.47;;;2.40;;
12892;SDS011;6514;48.606;9.222;2023-06-04T10:53:39;4.30;;;2.53;;
12892;SDS011;6514;48.606;9.222;2023-06-04T10:56:06;3.00;;;2.70;;
12892;SDS011;6514;48.606;9.222;2023-06-04T10:58:34;2.83;;;2.13;;
12892;SDS011;6514;48.606;9.222;2023-06-04T11:01:01;4.23;;;2.60;;
12892;SDS011;6514;48.606;9.222;2023-06-04T11:03:34;3.13;;;2.40;;
12892;SDS011;6514;48.606;9.222;2023-06-04T11:06:02;4.07;;;2.50;;
12892;SDS011;6514;48.606;9.222;2023-06-04T11:08:40;2.60;;;2.37;;
12892;SDS011;6514;48.606;9.222;2023-06-04T11:11:10;3.03;;;2.30;;
12892;SDS011;6514;48.606;9.222;2023-06-04T11:13:39;3.33;;;2.50;;
12892;SDS011;6514;48.606;9.222;2023-06-04T11:16:14;2.57;;;2.13;;
12892;SDS011;6514;48.606;9.222;2023-06-04T11:18:42;3.37;;;2.50;;
12892;SDS011;6514;48.606;9.222;2023-06-04T11:21:09;2.83;;;2.60;;
12892;SDS011;6514;48.606;9.222;2023-06-04T11:23:39;4.47;;;2.67;;
12892;SDS011;6514;48.606;9.222;2023-06-04T11:26:07;3.17;;;2.47;;
12892;SDS011;6514;48.606;9.222;2023-06-04T11:28:34;3.00;;;2.40;;
12892;SDS011;6514;48.606;9.222;2023-06-04T11:31:02;2.97;;;2.53;;
12892;SDS011;6514;48.606;9.222;2023-06-04T11:33:30;4.33;;;3.10;;
12892;SDS011;6514;48.606;9.222;2023-06-04T11:36:07;4.50;;;2.70;;
12892;SDS011;6514;48.606;9.222;2023-06-04T11:38:34;3.50;;;2.70;;
12892;SDS011;6514;48.606;9.222;2023-06-04T11:41:01;3.67;;;3.00;;
12892;SDS011;6514;48.606;9.222;2023-06-04T11:43:30;3.50;;;2.87;;
12892;SDS011;6514;48.606;9.222;2023-06-04T11:45:59;3.90;;;2.63;;
12892;SDS011;6514;48.606;9.222;2023-06-04T11:48:33;2.80;;;2.50;;
12892;SDS011;6514;48.606;9.222;2023-06-04T11:51:04;3.37;;;2.57;;
12892;SDS011;6514;48.606;9.222;2023-06-04T11:53:33;3.03;;;2.60;;
12892;SDS011;6514;48.606;9.222;2023-06-04T11:56:02;2.67;;;2.47;;
12892;SDS011;6514;48.606;9.222;2023-06-04T11:58:30;3.63;;;2.50;;
12892;SDS011;6514;48.606;9.222;2023-06-04T12:00:58;2.70;;;2.40;;
12892;SDS011;6514;48.606;9.222;2023-06-04T12:06:12;3.93;;;2.30;;
12892;SDS011;6514;48.606;9.222;2023-06-04T12:08:44;2.90;;;2.40;;
12892;SDS011;6514;48.606;9.222;2023-06-04T12:11:28;2.70;;;2.00;;
12892;SDS011;6514;48.606;9.222;2023-06-04T12:13:57;4.23;;;2.57;;
12892;SDS011;6514;48.606;9.222;2023-06-04T12:16:25;2.83;;;2.60;;
12892;SDS011;6514;48.606;9.222;2023-06-04T12:19:05;2.77;;;2.50;;
12892;SDS011;6514;48.606;9.222;2023-06-04T12:21:32;2.70;;;2.50;;
12892;SDS011;6514;48.606;9.222;2023-06-04T12:24:05;3.83;;;2.17;;
12892;SDS011;6514;48.606;9.222;2023-06-04T12:26:33;3.80;;;2.60;;
12892;SDS011;6514;48.606;9.222;2023-06-04T12:29:06;4.60;;;2.80;;
12892;SDS011;6514;48.606;9.222;2023-06-04T12:31:35;2.70;;;2.50;;
12892;SDS011;6514;48.606;9.222;2023-06-04T12:34:02;3.43;;;2.93;;
12892;SDS011;6514;48.606;9.222;2023-06-04T12:36:30;6.73;;;3.00;;
12892;SDS011;6514;48.606;9.222;2023-06-04T12:38:59;2.90;;;2.60;;
12892;SDS011;6514;48.606;9.222;2023-06-04T12:41:27;3.30;;;2.77;;
12892;SDS011;6514;48.606;9.222;2023-06-04T12:43:54;3.33;;;3.03;;
12892;SDS011;6514;48.606;9.222;2023-06-04T12:46:21;5.27;;;2.87;;
12892;SDS011;6514;48.606;9.222;2023-06-04T12:48:49;2.77;;;2.40;;
12892;SDS011;6514;48.606;9.222;2023-06-04T12:51:16;3.20;;;2.70;;
12892;SDS011;6514;48.606;9.222;2023-06-04T12:53:45;4.30;;;2.67;;
12892;SDS011;6514;48.606;9.222;2023-06-04T12:56:12;2.90;;;2.70;;
12892;SDS011;6514;48.606;9.222;2023-06-04T12:58:39;3.53;;;2.70;;
12892;SDS011;6514;48.606;9.222;2023-06-04T13:01:07;2.60;;;2.30;;
12892;SDS011;6514;48.606;9.222;2023-06-04T13:03:36;3.47;;;2.80;;
12892;SDS011;6514;48.606;9.222;2023-06-04T13:06:03;3.50;;;2.20;;
12892;SDS011;6514;48.606;9.222;2023-06-04T13:08:30;2.83;;;2.47;;
12892;SDS011;6514;48.606;9.222;2023-06-04T13:10:59;3.47;;;3.00;;
12892;SDS011;6514;48.606;9.222;2023-06-04T13:13:26;3.37;;;2.90;;
12892;SDS011;6514;48.606;9.222;2023-06-04T13:15:53;3.10;;;2.70;;
12892;SDS011;6514;48.606;9.222;2023-06-04T13:18:21;3.03;;;2.73;;
12892;SDS011;6514;48.606;9.222;2023-06-04T13:20:47;3.20;;;2.90;;
12892;SDS011;6514;48.606;9.222;2023-06-04T13:23:15;3.90;;;3.10;;
12892;SDS011;6514;48.606;9.222;2023-06-04T13:25:42;4.10;;;2.77;;
12892;SDS011;6514;48.606;9.222;2023-06-04T13:28:10;4.73;;;2.40;;
12892;SDS011;6514;48.606;9.222;2023-06-04T13:30:37;3.40;;;2.70;;
12892;SDS011;6514;48.606;9.222;2023-06-04T13:33:04;2.87;;;2.37;;
12892;SDS011;6514;48.606;9.222;2023-06-04T13:35:31;2.90;;;2.60;;
12892;SDS011;6514;48.606;9.222;2023-06-04T13:37:58;5.00;;;2.70;;
12892;SDS011;6514;48.606;9.222;2023-06-04T13:40:25;4.30;;;2.50;;
12892;SDS011;6514;48.606;9.222;2023-06-04T13:42:52;2.73;;;2.53;;
12892;SDS011;6514;48.606;9.222;2023-06-04T13:45:20;3.73;;;2.33;;
12892;SDS011;6514;48.606;9.222;2023-06-04T13:47:47;3.67;;;2.60;;
12892;SDS011;6514;48.606;9.222;2023-06-04T13:50:14;3.03;;;2.70;;
12892;SDS011;6514;48.606;9.222;2023-06-04T13:52:41;3.10;;;2.40;;
12892;SDS011;6514;48.606;9.222;2023-06-04T13:55:08;2.63;;;2.17;;
12892;SDS011;6514;48.606;9.222;2023-06-04T13:57:35;3.27;;;2.30;;
12892;SDS011;6514;48.606;9.222;2023-06-04T14:00:02;2.87;;;2.40;;
12892;SDS011;6514;48.606;9.222;2023-06-04T14:02:32;2.50;;;2.30;;
12892;SDS011;6514;48.606;9.222;2023-06-04T14:04:59;3.00;;;2.20;;
12892;SDS011;6514;48.606;9.222;2023-06-04T14:07:26;3.20;;;2.20;;
12892;SDS011;6514;48.606;9.222;2023-06-04T14:09:53;3.20;;;2.43;;
12892;SDS011;6514;48.606;9.222;2023-06-04T14:12:20;2.93;;;2.63;;
12892;SDS011;6514;48.606;9.222;2023-06-04T14:14:48;2.50;;;2.27;;
12892;SDS011;6514;48.606;9.222;2023-06-04T14:17:15;3.00;;;2.60;;
12892;SDS011;6514;48.606;9.222;2023-06-04T14:19:43;3.10;;;2.67;;
12892;SDS011;6514;48.606;9.222;2023-06-04T14:22:11;3.13;;;2.47;;
12892;SDS011;6514;48.606;9.222;2023-06-04T14:24:37;3.13;;;2.20;;
12892;SDS011;6514;48.606;9.222;2023-06-04T14:27:06;2.60;;;2.20;;
12892;SDS011;6514;48.606;9.222;2023-06-04T14:29:32;3.43;;;2.30;;
12892;SDS011;6514;48.606;9.222;2023-06-04T14:32:01;2.43;;;2.03;;
12892;SDS011;6514;48.606;9.222;2023-06-04T14:34:28;3.13;;;2.63;;
12892;SDS011;6514;48.606;9.222;2023-06-04T14:36:58;2.07;;;1.87;;
12892;SDS011;6514;48.606;9.222;2023-06-04T14:39:25;2.37;;;2.07;;
12892;SDS011;6514;48.606;9.222;2023-06-04T14:41:52;2.53;;;2.27;;
12892;SDS011;6514;48.606;9.222;2023-06-04T14:44:19;2.67;;;2.40;;
12892;SDS011;6514;48.606;9.222;2023-06-04T14:46:48;2.80;;;2.27;;
12892;SDS011;6514;48.606;9.222;2023-06-04T14:49:16;2.80;;;2.50;;
12892;SDS011;6514;48.606;9.222;2023-06-04T14:51:43;3.20;;;2.50;;
12892;SDS011;6514;48.606;9.222;2023-06-04T14:54:12;2.57;;;2.37;;
12892;SDS011;6514;48.606;9.222;2023-06-04T14:56:39;4.07;;;2.40;;
12892;SDS011;6514;48.606;9.222;2023-06-04T14:59:06;2.60;;;2.40;;
12892;SDS011;6514;48.606;9.222;2023-06-04T15:01:36;2.23;;;1.87;;
12892;SDS011;6514;48.606;9.222;2023-06-04T15:04:03;4.07;;;2.40;;
12892;SDS011;6514;48.606;9.222;2023-06-04T15:06:30;2.53;;;2.20;;
12892;SDS011;6514;48.606;9.222;2023-06-04T15:08:57;2.83;;;2.10;;